sensor_id;sensor_type;location;lat;lon;timestamp;P1;durP1;ratioP1;P2;durP2;ratioP2
76604;SDS011;65496;50.978;16.998;2023-04-15T00:00:33;10.68;;;9.38;;
76604;SDS011;65496;50.978;16.998;2023-04-15T00:03:12;11.48;;;10.35;;
76604;SDS011;65496;50.978;16.998;2023-04-15T00:05:39;10.95;;;9.88;;
76604;SDS011;65496;50.978;16.998;2023-04-15T00:08:05;12.75;;;11.45;;
76604;SDS011;65496;50.978;16.998;2023-04-15T00:10:32;11.75;;;10.55;;
76604;SDS011;65496;50.978;16.998;2023-04-15T00:12:58;10.93;;;9.85;;
76604;SDS011;65496;50.978;16.998;2023-04-15T00:15:24;10.63;;;9.63;;
76604;SDS011;65496;50.978;16.998;2023-04-15T00:17:51;9.88;;;8.88;;
76604;SDS011;65496;50.978;16.998;2023-04-15T00:20:17;12.27;;;9.40;;
76604;SDS011;65496;50.978;16.998;2023-04-15T00:22:43;10.07;;;9.05;;
76604;SDS011;65496;50.978;16.998;2023-04-15T00:25:09;10.35;;;8.80;;
76604;SDS011;65496;50.978;16.998;2023-04-15T00:27:35;10.25;;;9.25;;
76604;SDS011;65496;50.978;16.998;2023-04-15T00:30:02;10.65;;;9.55;;
76604;SDS011;65496;50.978;16.998;2023-04-15T00:32:28;11.00;;;9.18;;
76604;SDS011;65496;50.978;16.998;2023-04-15T00:34:54;10.00;;;9.00;;
76604;SDS011;65496;50.978;16.998;2023-04-15T00:37:20;9.70;;;8.70;;
76604;SDS011;65496;50.978;16.998;2023-04-15T00:39:46;10.23;;;9.23;;
76604;SDS011;65496;50.978;16.998;2023-04-15T00:42:12;9.82;;;8.82;;
76604;SDS011;65496;50.978;16.998;2023-04-15T00:44:39;9.13;;;8.20;;
76604;SDS011;65496;50.978;16.998;2023-04-15T00:47:05;9.02;;;8.13;;
76604;SDS011;65496;50.978;16.998;2023-04-15T00:49:32;9.65;;;8.70;;
76604;SDS011;65496;50.978;16.998;2023-04-15T00:51:58;10.50;;;8.27;;
76604;SDS011;65496;50.978;16.998;2023-04-15T00:54:24;9.00;;;7.50;;
76604;SDS011;65496;50.978;16.998;2023-04-15T00:56:50;8.55;;;7.45;;
76604;SDS011;65496;50.978;16.998;2023-04-15T00:59:17;7.85;;;7.00;;
76604;SDS011;65496;50.978;16.998;2023-04-15T01:01:43;8.68;;;7.82;;
76604;SDS011;65496;50.978;16.998;2023-04-15T01:04:10;8.43;;;7.63;;
76604;SDS011;65496;50.978;16.998;2023-04-15T01:06:36;8.18;;;7.22;;
76604;SDS011;65496;50.978;16.998;2023-04-15T01:09:02;9.20;;;8.30;;
76604;SDS011;65496;50.978;16.998;2023-04-15T01:11:29;8.40;;;7.53;;
76604;SDS011;65496;50.978;16.998;2023-04-15T01:13:57;8.18;;;7.05;;
76604;SDS011;65496;50.978;16.998;2023-04-15T01:16:23;8.82;;;7.10;;
76604;SDS011;65496;50.978;16.998;2023-04-15T01:18:50;7.90;;;7.10;;
76604;SDS011;65496;50.978;16.998;2023-04-15T01:21:17;9.50;;;8.50;;
76604;SDS011;65496;50.978;16.998;2023-04-15T01:23:44;9.30;;;8.25;;
76604;SDS011;65496;50.978;16.998;2023-04-15T01:26:12;7.78;;;6.97;;
76604;SDS011;65496;50.978;16.998;2023-04-15T01:28:38;8.95;;;7.55;;
76604;SDS011;65496;50.978;16.998;2023-04-15T01:31:08;7.82;;;6.90;;
76604;SDS011;65496;50.978;16.998;2023-04-15T01:33:36;7.80;;;6.72;;
76604;SDS011;65496;50.978;16.998;2023-04-15T01:36:03;9.27;;;8.25;;
76604;SDS011;65496;50.978;16.998;2023-04-15T01:38:30;7.35;;;6.68;;
76604;SDS011;65496;50.978;16.998;2023-04-15T01:40:57;7.72;;;6.93;;
76604;SDS011;65496;50.978;16.998;2023-04-15T01:43:24;10.10;;;7.93;;
76604;SDS011;65496;50.978;16.998;2023-04-15T01:45:53;7.95;;;6.85;;
76604;SDS011;65496;50.978;16.998;2023-04-15T01:48:19;7.00;;;6.25;;
76604;SDS011;65496;50.978;16.998;2023-04-15T01:50:45;8.13;;;6.80;;
76604;SDS011;65496;50.978;16.998;2023-04-15T01:53:11;8.02;;;7.22;;
76604;SDS011;65496;50.978;16.998;2023-04-15T01:55:37;7.80;;;7.03;;
76604;SDS011;65496;50.978;16.998;2023-04-15T01:58:03;7.18;;;6.45;;
76604;SDS011;65496;50.978;16.998;2023-04-15T02:00:29;7.43;;;6.18;;
76604;SDS011;65496;50.978;16.998;2023-04-15T02:02:57;8.30;;;7.38;;
76604;SDS011;65496;50.978;16.998;2023-04-15T02:05:23;8.20;;;7.30;;
76604;SDS011;65496;50.978;16.998;2023-04-15T02:07:50;7.85;;;6.80;;
76604;SDS011;65496;50.978;16.998;2023-04-15T02:10:16;7.32;;;6.28;;
76604;SDS011;65496;50.978;16.998;2023-04-15T02:12:42;9.13;;;6.80;;
76604;SDS011;65496;50.978;16.998;2023-04-15T02:15:08;7.45;;;6.30;;
76604;SDS011;65496;50.978;16.998;2023-04-15T02:17:36;6.85;;;5.93;;
76604;SDS011;65496;50.978;16.998;2023-04-15T02:20:02;8.50;;;6.15;;
76604;SDS011;65496;50.978;16.998;2023-04-15T02:22:33;7.28;;;6.57;;
76604;SDS011;65496;50.978;16.998;2023-04-15T02:24:59;7.25;;;6.50;;
76604;SDS011;65496;50.978;16.998;2023-04-15T02:27:25;6.95;;;6.25;;
76604;SDS011;65496;50.978;16.998;2023-04-15T02:29:52;7.55;;;6.78;;
76604;SDS011;65496;50.978;16.998;2023-04-15T02:32:19;6.65;;;5.95;;
76604;SDS011;65496;50.978;16.998;2023-04-15T02:34:46;7.38;;;6.60;;
76604;SDS011;65496;50.978;16.998;2023-04-15T02:37:13;6.38;;;5.75;;
76604;SDS011;65496;50.978;16.998;2023-04-15T02:39:39;6.80;;;6.05;;
76604;SDS011;65496;50.978;16.998;2023-04-15T02:42:05;6.40;;;5.80;;
76604;SDS011;65496;50.978;16.998;2023-04-15T02:44:31;6.78;;;6.07;;
76604;SDS011;65496;50.978;16.998;2023-04-15T02:46:58;7.30;;;6.60;;
76604;SDS011;65496;50.978;16.998;2023-04-15T02:49:24;6.78;;;6.07;;
76604;SDS011;65496;50.978;16.998;2023-04-15T02:51:51;6.65;;;5.97;;
76604;SDS011;65496;50.978;16.998;2023-04-15T02:54:17;6.30;;;5.70;;
76604;SDS011;65496;50.978;16.998;2023-04-15T02:56:44;7.25;;;6.18;;
76604;SDS011;65496;50.978;16.998;2023-04-15T02:59:10;6.63;;;5.93;;
76604;SDS011;65496;50.978;16.998;2023-04-15T03:01:37;7.03;;;6.28;;
76604;SDS011;65496;50.978;16.998;2023-04-15T03:04:03;6.38;;;5.68;;
76604;SDS011;65496;50.978;16.998;2023-04-15T03:06:30;6.28;;;5.68;;
76604;SDS011;65496;50.978;16.998;2023-04-15T03:08:56;6.72;;;5.68;;
76604;SDS011;65496;50.978;16.998;2023-04-15T03:11:22;6.82;;;5.75;;
76604;SDS011;65496;50.978;16.998;2023-04-15T03:13:47;7.03;;;5.65;;
76604;SDS011;65496;50.978;16.998;2023-04-15T03:16:14;7.40;;;6.68;;
76604;SDS011;65496;50.978;16.998;2023-04-15T03:18:40;7.65;;;6.30;;
76604;SDS011;65496;50.978;16.998;2023-04-15T03:21:06;5.85;;;5.25;;
76604;SDS011;65496;50.978;16.998;2023-04-15T03:23:32;6.60;;;5.38;;
76604;SDS011;65496;50.978;16.998;2023-04-15T03:26:00;6.05;;;5.53;;
76604;SDS011;65496;50.978;16.998;2023-04-15T03:28:27;7.88;;;5.22;;
76604;SDS011;65496;50.978;16.998;2023-04-15T03:30:54;6.22;;;4.82;;
76604;SDS011;65496;50.978;16.998;2023-04-15T03:33:21;5.97;;;5.38;;
76604;SDS011;65496;50.978;16.998;2023-04-15T03:35:47;5.30;;;4.80;;
76604;SDS011;65496;50.978;16.998;2023-04-15T03:38:14;6.45;;;5.47;;
76604;SDS011;65496;50.978;16.998;2023-04-15T03:40:41;5.35;;;4.80;;
76604;SDS011;65496;50.978;16.998;2023-04-15T03:43:06;6.00;;;5.05;;
76604;SDS011;65496;50.978;16.998;2023-04-15T03:45:32;6.18;;;5.55;;
76604;SDS011;65496;50.978;16.998;2023-04-15T03:47:58;5.80;;;5.10;;
76604;SDS011;65496;50.978;16.998;2023-04-15T03:50:25;6.60;;;5.35;;
76604;SDS011;65496;50.978;16.998;2023-04-15T03:52:50;5.38;;;4.88;;
76604;SDS011;65496;50.978;16.998;2023-04-15T03:55:17;5.57;;;5.05;;
76604;SDS011;65496;50.978;16.998;2023-04-15T03:57:42;4.78;;;4.32;;
76604;SDS011;65496;50.978;16.998;2023-04-15T04:00:09;4.50;;;4.10;;
76604;SDS011;65496;50.978;16.998;2023-04-15T04:02:35;4.85;;;4.32;;
76604;SDS011;65496;50.978;16.998;2023-04-15T04:05:01;6.03;;;4.63;;
76604;SDS011;65496;50.978;16.998;2023-04-15T04:07:27;5.18;;;4.50;;
76604;SDS011;65496;50.978;16.998;2023-04-15T04:09:53;5.40;;;4.25;;
76604;SDS011;65496;50.978;16.998;2023-04-15T04:12:19;6.18;;;4.18;;
76604;SDS011;65496;50.978;16.998;2023-04-15T04:14:45;5.28;;;4.25;;
76604;SDS011;65496;50.978;16.998;2023-04-15T04:17:11;4.85;;;4.07;;
76604;SDS011;65496;50.978;16.998;2023-04-15T04:19:37;5.30;;;4.03;;
76604;SDS011;65496;50.978;16.998;2023-04-15T04:22:03;4.60;;;3.90;;
76604;SDS011;65496;50.978;16.998;2023-04-15T04:24:29;4.82;;;4.13;;
76604;SDS011;65496;50.978;16.998;2023-04-15T04:26:55;4.35;;;3.88;;
76604;SDS011;65496;50.978;16.998;2023-04-15T04:29:22;4.00;;;3.60;;
76604;SDS011;65496;50.978;16.998;2023-04-15T04:31:48;4.45;;;4.05;;
76604;SDS011;65496;50.978;16.998;2023-04-15T04:34:14;4.00;;;3.53;;
76604;SDS011;65496;50.978;16.998;2023-04-15T04:36:40;3.70;;;3.28;;
76604;SDS011;65496;50.978;16.998;2023-04-15T04:39:07;4.07;;;3.38;;
76604;SDS011;65496;50.978;16.998;2023-04-15T04:41:33;4.00;;;3.33;;
76604;SDS011;65496;50.978;16.998;2023-04-15T04:43:59;4.95;;;3.50;;
76604;SDS011;65496;50.978;16.998;2023-04-15T04:46:25;4.18;;;3.50;;
76604;SDS011;65496;50.978;16.998;2023-04-15T04:48:51;3.60;;;3.15;;
76604;SDS011;65496;50.978;16.998;2023-04-15T04:51:17;3.53;;;2.97;;
76604;SDS011;65496;50.978;16.998;2023-04-15T04:53:43;3.58;;;2.97;;
76604;SDS011;65496;50.978;16.998;2023-04-15T04:56:09;3.65;;;3.25;;
76604;SDS011;65496;50.978;16.998;2023-04-15T04:58:35;4.18;;;3.47;;
76604;SDS011;65496;50.978;16.998;2023-04-15T05:01:02;3.50;;;2.90;;
76604;SDS011;65496;50.978;16.998;2023-04-15T05:03:28;4.05;;;3.33;;
76604;SDS011;65496;50.978;16.998;2023-04-15T05:05:54;3.38;;;3.08;;
76604;SDS011;65496;50.978;16.998;2023-04-15T05:08:20;3.30;;;2.70;;
76604;SDS011;65496;50.978;16.998;2023-04-15T05:10:46;4.32;;;3.20;;
76604;SDS011;65496;50.978;16.998;2023-04-15T05:13:13;3.35;;;2.83;;
76604;SDS011;65496;50.978;16.998;2023-04-15T05:15:38;3.35;;;2.78;;
76604;SDS011;65496;50.978;16.998;2023-04-15T05:18:06;3.35;;;3.00;;
76604;SDS011;65496;50.978;16.998;2023-04-15T05:20:31;3.15;;;2.63;;
76604;SDS011;65496;50.978;16.998;2023-04-15T05:22:57;3.58;;;2.85;;
76604;SDS011;65496;50.978;16.998;2023-04-15T05:25:23;3.25;;;2.83;;
76604;SDS011;65496;50.978;16.998;2023-04-15T05:27:50;3.25;;;2.80;;
76604;SDS011;65496;50.978;16.998;2023-04-15T05:30:16;3.17;;;2.50;;
76604;SDS011;65496;50.978;16.998;2023-04-15T05:32:42;3.08;;;2.70;;
76604;SDS011;65496;50.978;16.998;2023-04-15T05:35:08;3.72;;;2.80;;
76604;SDS011;65496;50.978;16.998;2023-04-15T05:37:34;3.60;;;3.03;;
76604;SDS011;65496;50.978;16.998;2023-04-15T05:40:00;2.83;;;2.30;;
76604;SDS011;65496;50.978;16.998;2023-04-15T05:42:26;2.83;;;2.50;;
76604;SDS011;65496;50.978;16.998;2023-04-15T05:44:52;2.80;;;2.30;;
76604;SDS011;65496;50.978;16.998;2023-04-15T05:47:18;3.17;;;2.47;;
76604;SDS011;65496;50.978;16.998;2023-04-15T05:49:44;3.33;;;2.78;;
76604;SDS011;65496;50.978;16.998;2023-04-15T05:52:11;3.25;;;2.58;;
76604;SDS011;65496;50.978;16.998;2023-04-15T05:54:36;3.13;;;2.40;;
76604;SDS011;65496;50.978;16.998;2023-04-15T05:57:03;4.00;;;2.50;;
76604;SDS011;65496;50.978;16.998;2023-04-15T05:59:29;2.70;;;1.98;;
76604;SDS011;65496;50.978;16.998;2023-04-15T06:01:55;4.60;;;2.33;;
76604;SDS011;65496;50.978;16.998;2023-04-15T06:04:21;4.28;;;2.13;;
76604;SDS011;65496;50.978;16.998;2023-04-15T06:06:47;2.55;;;2.10;;
76604;SDS011;65496;50.978;16.998;2023-04-15T06:09:13;2.50;;;1.80;;
76604;SDS011;65496;50.978;16.998;2023-04-15T06:11:39;3.05;;;2.25;;
76604;SDS011;65496;50.978;16.998;2023-04-15T06:14:05;2.30;;;1.90;;
76604;SDS011;65496;50.978;16.998;2023-04-15T06:16:31;2.65;;;2.10;;
76604;SDS011;65496;50.978;16.998;2023-04-15T06:18:57;2.97;;;2.15;;
76604;SDS011;65496;50.978;16.998;2023-04-15T06:21:23;2.80;;;2.10;;
76604;SDS011;65496;50.978;16.998;2023-04-15T06:23:49;2.95;;;1.98;;
76604;SDS011;65496;50.978;16.998;2023-04-15T06:26:16;2.55;;;2.20;;
76604;SDS011;65496;50.978;16.998;2023-04-15T06:28:41;2.38;;;1.73;;
76604;SDS011;65496;50.978;16.998;2023-04-15T06:31:08;2.85;;;2.00;;
76604;SDS011;65496;50.978;16.998;2023-04-15T06:33:33;2.65;;;1.83;;
76604;SDS011;65496;50.978;16.998;2023-04-15T06:36:00;2.83;;;2.00;;
76604;SDS011;65496;50.978;16.998;2023-04-15T06:38:25;3.55;;;2.10;;
76604;SDS011;65496;50.978;16.998;2023-04-15T06:40:52;3.10;;;2.10;;
76604;SDS011;65496;50.978;16.998;2023-04-15T06:43:17;3.22;;;2.00;;
76604;SDS011;65496;50.978;16.998;2023-04-15T06:45:44;2.42;;;1.80;;
76604;SDS011;65496;50.978;16.998;2023-04-15T06:48:10;4.05;;;2.00;;
76604;SDS011;65496;50.978;16.998;2023-04-15T06:50:37;2.97;;;1.75;;
76604;SDS011;65496;50.978;16.998;2023-04-15T06:53:03;2.35;;;1.83;;
76604;SDS011;65496;50.978;16.998;2023-04-15T06:55:29;2.53;;;1.90;;
76604;SDS011;65496;50.978;16.998;2023-04-15T06:57:56;2.63;;;1.80;;
76604;SDS011;65496;50.978;16.998;2023-04-15T07:00:22;2.17;;;1.70;;
76604;SDS011;65496;50.978;16.998;2023-04-15T07:02:47;2.97;;;1.90;;
76604;SDS011;65496;50.978;16.998;2023-04-15T07:05:14;2.17;;;1.60;;
76604;SDS011;65496;50.978;16.998;2023-04-15T07:07:40;4.72;;;1.73;;
76604;SDS011;65496;50.978;16.998;2023-04-15T07:10:07;2.13;;;1.80;;
76604;SDS011;65496;50.978;16.998;2023-04-15T07:12:34;2.08;;;1.70;;
76604;SDS011;65496;50.978;16.998;2023-04-15T07:15:00;2.25;;;1.80;;
76604;SDS011;65496;50.978;16.998;2023-04-15T07:17:26;5.88;;;1.80;;
76604;SDS011;65496;50.978;16.998;2023-04-15T07:19:53;3.25;;;1.80;;
76604;SDS011;65496;50.978;16.998;2023-04-15T07:22:24;2.40;;;1.70;;
76604;SDS011;65496;50.978;16.998;2023-04-15T07:24:50;2.10;;;1.50;;
76604;SDS011;65496;50.978;16.998;2023-04-15T07:27:16;2.58;;;2.00;;
76604;SDS011;65496;50.978;16.998;2023-04-15T07:29:42;2.28;;;1.70;;
76604;SDS011;65496;50.978;16.998;2023-04-15T07:32:08;2.00;;;1.42;;
76604;SDS011;65496;50.978;16.998;2023-04-15T07:34:35;3.85;;;1.70;;
76604;SDS011;65496;50.978;16.998;2023-04-15T07:37:02;2.53;;;1.27;;
76604;SDS011;65496;50.978;16.998;2023-04-15T07:39:28;2.90;;;1.80;;
76604;SDS011;65496;50.978;16.998;2023-04-15T07:41:54;1.88;;;1.50;;
76604;SDS011;65496;50.978;16.998;2023-04-15T07:44:21;2.58;;;1.70;;
76604;SDS011;65496;50.978;16.998;2023-04-15T07:46:46;1.85;;;1.40;;
76604;SDS011;65496;50.978;16.998;2023-04-15T07:49:12;1.88;;;1.30;;
76604;SDS011;65496;50.978;16.998;2023-04-15T07:51:38;2.33;;;1.40;;
76604;SDS011;65496;50.978;16.998;2023-04-15T07:54:05;2.53;;;1.50;;
76604;SDS011;65496;50.978;16.998;2023-04-15T07:56:30;2.08;;;1.50;;
76604;SDS011;65496;50.978;16.998;2023-04-15T07:58:57;1.95;;;1.60;;
76604;SDS011;65496;50.978;16.998;2023-04-15T08:01:23;2.08;;;1.50;;
76604;SDS011;65496;50.978;16.998;2023-04-15T08:03:49;2.03;;;1.33;;
76604;SDS011;65496;50.978;16.998;2023-04-15T08:06:15;2.58;;;1.45;;
76604;SDS011;65496;50.978;16.998;2023-04-15T08:08:42;2.38;;;1.55;;
76604;SDS011;65496;50.978;16.998;2023-04-15T08:11:08;1.38;;;1.15;;
76604;SDS011;65496;50.978;16.998;2023-04-15T08:13:34;1.25;;;1.13;;
76604;SDS011;65496;50.978;16.998;2023-04-15T08:16:19;2.20;;;1.40;;
76604;SDS011;65496;50.978;16.998;2023-04-15T08:18:47;2.40;;;1.20;;
76604;SDS011;65496;50.978;16.998;2023-04-15T08:21:15;1.95;;;1.30;;
76604;SDS011;65496;50.978;16.998;2023-04-15T08:23:42;1.77;;;1.30;;
76604;SDS011;65496;50.978;16.998;2023-04-15T08:26:09;2.80;;;1.25;;
76604;SDS011;65496;50.978;16.998;2023-04-15T08:28:37;5.13;;;1.50;;
76604;SDS011;65496;50.978;16.998;2023-04-15T08:31:04;14.15;;;1.55;;
76604;SDS011;65496;50.978;16.998;2023-04-15T08:33:30;2.13;;;1.35;;
76604;SDS011;65496;50.978;16.998;2023-04-15T08:35:56;2.72;;;1.60;;
76604;SDS011;65496;50.978;16.998;2023-04-15T08:38:23;4.45;;;1.48;;
76604;SDS011;65496;50.978;16.998;2023-04-15T08:40:49;1.65;;;1.02;;
76604;SDS011;65496;50.978;16.998;2023-04-15T08:43:26;2.13;;;1.15;;
76604;SDS011;65496;50.978;16.998;2023-04-15T08:45:55;1.52;;;1.10;;
76604;SDS011;65496;50.978;16.998;2023-04-15T08:48:24;1.92;;;1.20;;
76604;SDS011;65496;50.978;16.998;2023-04-15T08:50:53;2.08;;;1.20;;
76604;SDS011;65496;50.978;16.998;2023-04-15T08:53:20;1.23;;;1.10;;
76604;SDS011;65496;50.978;16.998;2023-04-15T08:55:48;1.88;;;1.13;;
76604;SDS011;65496;50.978;16.998;2023-04-15T08:58:17;1.52;;;1.20;;
76604;SDS011;65496;50.978;16.998;2023-04-15T09:00:44;1.38;;;1.20;;
76604;SDS011;65496;50.978;16.998;2023-04-15T09:03:10;1.38;;;1.27;;
76604;SDS011;65496;50.978;16.998;2023-04-15T09:05:37;3.20;;;1.33;;
76604;SDS011;65496;50.978;16.998;2023-04-15T09:08:03;1.85;;;1.30;;
76604;SDS011;65496;50.978;16.998;2023-04-15T09:10:30;2.63;;;1.05;;
76604;SDS011;65496;50.978;16.998;2023-04-15T09:12:57;2.00;;;1.10;;
76604;SDS011;65496;50.978;16.998;2023-04-15T09:15:24;4.78;;;1.80;;
76604;SDS011;65496;50.978;16.998;2023-04-15T09:17:54;5.05;;;1.00;;
76604;SDS011;65496;50.978;16.998;2023-04-15T09:20:21;1.67;;;1.10;;
76604;SDS011;65496;50.978;16.998;2023-04-15T09:22:48;5.93;;;1.27;;
76604;SDS011;65496;50.978;16.998;2023-04-15T09:27:50;1.88;;;0.85;;
76604;SDS011;65496;50.978;16.998;2023-04-15T09:30:17;1.17;;;0.80;;
76604;SDS011;65496;50.978;16.998;2023-04-15T09:32:50;3.72;;;1.23;;
76604;SDS011;65496;50.978;16.998;2023-04-15T09:35:17;2.13;;;1.10;;
76604;SDS011;65496;50.978;16.998;2023-04-15T09:37:45;1.50;;;0.95;;
76604;SDS011;65496;50.978;16.998;2023-04-15T09:40:11;2.85;;;1.10;;
76604;SDS011;65496;50.978;16.998;2023-04-15T09:42:54;1.92;;;1.33;;
76604;SDS011;65496;50.978;16.998;2023-04-15T09:45:20;2.25;;;1.00;;
76604;SDS011;65496;50.978;16.998;2023-04-15T09:47:47;1.60;;;1.00;;
76604;SDS011;65496;50.978;16.998;2023-04-15T09:50:15;2.10;;;0.88;;
76604;SDS011;65496;50.978;16.998;2023-04-15T09:52:42;2.33;;;1.17;;
76604;SDS011;65496;50.978;16.998;2023-04-15T09:55:08;2.88;;;1.20;;
76604;SDS011;65496;50.978;16.998;2023-04-15T09:57:36;1.05;;;0.73;;
76604;SDS011;65496;50.978;16.998;2023-04-15T10:00:03;1.15;;;0.85;;
76604;SDS011;65496;50.978;16.998;2023-04-15T10:02:30;1.33;;;1.17;;
76604;SDS011;65496;50.978;16.998;2023-04-15T10:04:56;1.90;;;1.13;;
76604;SDS011;65496;50.978;16.998;2023-04-15T10:07:24;1.98;;;1.08;;
76604;SDS011;65496;50.978;16.998;2023-04-15T10:09:50;1.60;;;0.88;;
76604;SDS011;65496;50.978;16.998;2023-04-15T10:12:17;1.88;;;0.85;;
76604;SDS011;65496;50.978;16.998;2023-04-15T10:14:45;1.40;;;0.98;;
76604;SDS011;65496;50.978;16.998;2023-04-15T10:17:16;1.00;;;0.80;;
76604;SDS011;65496;50.978;16.998;2023-04-15T10:19:43;1.25;;;0.98;;
76604;SDS011;65496;50.978;16.998;2023-04-15T10:22:11;2.17;;;1.00;;
76604;SDS011;65496;50.978;16.998;2023-04-15T10:24:39;0.90;;;0.90;;
76604;SDS011;65496;50.978;16.998;2023-04-15T10:27:05;1.02;;;0.73;;
76604;SDS011;65496;50.978;16.998;2023-04-15T10:29:33;0.82;;;0.70;;
76604;SDS011;65496;50.978;16.998;2023-04-15T10:31:59;1.10;;;0.70;;
76604;SDS011;65496;50.978;16.998;2023-04-15T10:34:26;1.33;;;0.60;;
76604;SDS011;65496;50.978;16.998;2023-04-15T10:36:54;1.13;;;0.90;;
76604;SDS011;65496;50.978;16.998;2023-04-15T10:39:41;0.80;;;0.80;;
76604;SDS011;65496;50.978;16.998;2023-04-15T10:42:09;1.25;;;0.90;;
76604;SDS011;65496;50.978;16.998;2023-04-15T10:44:37;1.45;;;1.00;;
76604;SDS011;65496;50.978;16.998;2023-04-15T10:47:13;0.80;;;0.80;;
76604;SDS011;65496;50.978;16.998;2023-04-15T10:49:58;2.08;;;0.90;;
76604;SDS011;65496;50.978;16.998;2023-04-15T10:52:27;1.00;;;0.90;;
76604;SDS011;65496;50.978;16.998;2023-04-15T10:55:11;1.20;;;0.82;;
76604;SDS011;65496;50.978;16.998;2023-04-15T10:57:41;1.08;;;0.80;;
76604;SDS011;65496;50.978;16.998;2023-04-15T11:05:08;0.82;;;0.80;;
76604;SDS011;65496;50.978;16.998;2023-04-15T11:07:51;1.02;;;0.95;;
76604;SDS011;65496;50.978;16.998;2023-04-15T11:12:56;1.25;;;0.90;;
76604;SDS011;65496;50.978;16.998;2023-04-15T11:15:37;1.00;;;1.00;;
76604;SDS011;65496;50.978;16.998;2023-04-15T11:20:34;1.20;;;1.10;;
76604;SDS011;65496;50.978;16.998;2023-04-15T11:23:01;0.82;;;0.80;;
76604;SDS011;65496;50.978;16.998;2023-04-15T11:25:28;2.47;;;1.20;;
76604;SDS011;65496;50.978;16.998;2023-04-15T11:27:55;1.40;;;1.20;;
76604;SDS011;65496;50.978;16.998;2023-04-15T11:30:22;1.17;;;1.00;;
76604;SDS011;65496;50.978;16.998;2023-04-15T11:32:50;1.15;;;0.80;;
76604;SDS011;65496;50.978;16.998;2023-04-15T11:35:17;1.23;;;1.10;;
76604;SDS011;65496;50.978;16.998;2023-04-15T11:37:44;2.88;;;1.10;;
76604;SDS011;65496;50.978;16.998;2023-04-15T11:40:10;1.10;;;1.00;;
76604;SDS011;65496;50.978;16.998;2023-04-15T11:42:37;0.82;;;0.80;;
76604;SDS011;65496;50.978;16.998;2023-04-15T11:45:11;1.25;;;0.90;;
76604;SDS011;65496;50.978;16.998;2023-04-15T11:47:39;1.20;;;1.10;;
76604;SDS011;65496;50.978;16.998;2023-04-15T11:50:21;0.93;;;0.93;;
76604;SDS011;65496;50.978;16.998;2023-04-15T11:52:58;1.60;;;1.20;;
76604;SDS011;65496;50.978;16.998;2023-04-15T11:55:28;0.80;;;0.77;;
76604;SDS011;65496;50.978;16.998;2023-04-15T11:58:07;1.20;;;1.05;;
76604;SDS011;65496;50.978;16.998;2023-04-15T12:00:36;1.48;;;1.27;;
76604;SDS011;65496;50.978;16.998;2023-04-15T12:03:12;1.60;;;1.20;;
76604;SDS011;65496;50.978;16.998;2023-04-15T12:11:21;1.13;;;1.02;;
76604;SDS011;65496;50.978;16.998;2023-04-15T12:13:57;1.52;;;1.13;;
76604;SDS011;65496;50.978;16.998;2023-04-15T12:16:34;1.10;;;1.00;;
76604;SDS011;65496;50.978;16.998;2023-04-15T12:19:14;1.70;;;1.20;;
76604;SDS011;65496;50.978;16.998;2023-04-15T12:21:46;1.10;;;1.02;;
76604;SDS011;65496;50.978;16.998;2023-04-15T12:24:13;1.80;;;1.33;;
76604;SDS011;65496;50.978;16.998;2023-04-15T12:29:10;0.80;;;0.80;;
76604;SDS011;65496;50.978;16.998;2023-04-15T12:31:50;1.75;;;1.27;;
76604;SDS011;65496;50.978;16.998;2023-04-15T12:34:31;1.33;;;1.08;;
76604;SDS011;65496;50.978;16.998;2023-04-15T12:37:00;1.20;;;1.10;;
76604;SDS011;65496;50.978;16.998;2023-04-15T12:39:28;1.55;;;1.27;;
76604;SDS011;65496;50.978;16.998;2023-04-15T12:41:57;1.20;;;1.10;;
76604;SDS011;65496;50.978;16.998;2023-04-15T12:44:24;1.17;;;1.08;;
76604;SDS011;65496;50.978;16.998;2023-04-15T12:46:51;1.10;;;0.93;;
76604;SDS011;65496;50.978;16.998;2023-04-15T12:49:18;1.45;;;1.10;;
76604;SDS011;65496;50.978;16.998;2023-04-15T12:51:48;1.08;;;1.08;;
76604;SDS011;65496;50.978;16.998;2023-04-15T12:54:15;1.38;;;1.10;;
76604;SDS011;65496;50.978;16.998;2023-04-15T12:56:42;1.52;;;1.25;;
76604;SDS011;65496;50.978;16.998;2023-04-15T12:59:09;1.30;;;1.15;;
76604;SDS011;65496;50.978;16.998;2023-04-15T13:01:35;2.55;;;1.20;;
76604;SDS011;65496;50.978;16.998;2023-04-15T13:04:01;1.42;;;1.33;;
76604;SDS011;65496;50.978;16.998;2023-04-15T13:06:27;1.58;;;1.10;;
76604;SDS011;65496;50.978;16.998;2023-04-15T13:08:54;1.33;;;1.10;;
76604;SDS011;65496;50.978;16.998;2023-04-15T13:11:21;1.17;;;1.08;;
76604;SDS011;65496;50.978;16.998;2023-04-15T13:13:47;1.52;;;1.30;;
76604;SDS011;65496;50.978;16.998;2023-04-15T13:16:13;1.25;;;1.02;;
76604;SDS011;65496;50.978;16.998;2023-04-15T13:18:39;1.52;;;1.38;;
76604;SDS011;65496;50.978;16.998;2023-04-15T13:21:05;1.63;;;1.27;;
76604;SDS011;65496;50.978;16.998;2023-04-15T13:23:32;1.63;;;1.13;;
76604;SDS011;65496;50.978;16.998;2023-04-15T13:25:58;1.58;;;1.15;;
76604;SDS011;65496;50.978;16.998;2023-04-15T13:28:24;1.27;;;1.10;;
76604;SDS011;65496;50.978;16.998;2023-04-15T13:30:50;1.35;;;1.20;;
76604;SDS011;65496;50.978;16.998;2023-04-15T13:33:16;1.40;;;1.30;;
76604;SDS011;65496;50.978;16.998;2023-04-15T13:35:42;1.08;;;0.95;;
76604;SDS011;65496;50.978;16.998;2023-04-15T13:38:09;1.85;;;1.40;;
76604;SDS011;65496;50.978;16.998;2023-04-15T13:40:37;1.88;;;1.40;;
76604;SDS011;65496;50.978;16.998;2023-04-15T13:43:10;2.28;;;2.00;;
76604;SDS011;65496;50.978;16.998;2023-04-15T13:45:36;2.92;;;1.30;;
76604;SDS011;65496;50.978;16.998;2023-04-15T13:48:03;1.50;;;1.33;;
76604;SDS011;65496;50.978;16.998;2023-04-15T13:50:29;1.95;;;1.40;;
76604;SDS011;65496;50.978;16.998;2023-04-15T13:52:56;1.90;;;1.30;;
76604;SDS011;65496;50.978;16.998;2023-04-15T13:55:21;1.92;;;1.33;;
76604;SDS011;65496;50.978;16.998;2023-04-15T13:57:48;7.15;;;1.63;;
76604;SDS011;65496;50.978;16.998;2023-04-15T14:00:15;1.50;;;1.30;;
76604;SDS011;65496;50.978;16.998;2023-04-15T14:02:41;3.50;;;1.83;;
76604;SDS011;65496;50.978;16.998;2023-04-15T14:05:07;3.03;;;1.63;;
76604;SDS011;65496;50.978;16.998;2023-04-15T14:07:34;2.40;;;1.48;;
76604;SDS011;65496;50.978;16.998;2023-04-15T14:10:00;2.35;;;1.48;;
76604;SDS011;65496;50.978;16.998;2023-04-15T14:12:28;1.50;;;1.20;;
76604;SDS011;65496;50.978;16.998;2023-04-15T14:14:55;1.95;;;1.23;;
76604;SDS011;65496;50.978;16.998;2023-04-15T14:17:21;3.08;;;1.40;;
76604;SDS011;65496;50.978;16.998;2023-04-15T14:19:47;2.15;;;1.30;;
76604;SDS011;65496;50.978;16.998;2023-04-15T14:22:13;4.13;;;1.70;;
76604;SDS011;65496;50.978;16.998;2023-04-15T14:24:39;1.40;;;1.13;;
76604;SDS011;65496;50.978;16.998;2023-04-15T14:27:06;2.33;;;1.50;;
76604;SDS011;65496;50.978;16.998;2023-04-15T14:29:33;2.60;;;1.23;;
76604;SDS011;65496;50.978;16.998;2023-04-15T14:31:59;2.20;;;1.75;;
76604;SDS011;65496;50.978;16.998;2023-04-15T14:34:25;2.22;;;1.40;;
76604;SDS011;65496;50.978;16.998;2023-04-15T14:36:51;6.82;;;1.75;;
76604;SDS011;65496;50.978;16.998;2023-04-15T14:39:18;3.05;;;1.35;;
76604;SDS011;65496;50.978;16.998;2023-04-15T14:41:44;2.10;;;1.30;;
76604;SDS011;65496;50.978;16.998;2023-04-15T14:44:11;1.48;;;1.15;;
76604;SDS011;65496;50.978;16.998;2023-04-15T14:46:37;1.70;;;1.30;;
76604;SDS011;65496;50.978;16.998;2023-04-15T14:49:05;2.03;;;1.30;;
76604;SDS011;65496;50.978;16.998;2023-04-15T14:51:31;1.58;;;0.88;;
76604;SDS011;65496;50.978;16.998;2023-04-15T14:53:57;1.55;;;1.13;;